Time;durP1;ratioP1;P1;durP2;ratioP2;P2;SDS_P1;SDS_P2;PMS_P1;PMS_P2;Temp;Humidity;BMP_temperature;BMP_pressure;BME280_temperature;BME280_humidity;BME280_pressure;Samples;Min_cycle;Max_cycle;Signal;HPM_P1;HPM_P2
2020/12/14 00:00:26;;;;;;;;;;;3.40;99.90;;;;;;5109681;28;20023;-72
2020/12/14 00:02:52;;;;;;;;;;;3.30;99.90;;;;;;5115205;28;19924;-71
2020/12/14 00:05:18;;;;;;;;;;;3.30;99.90;;;;;;5112728;28;20392;-71
2020/12/14 00:07:45;;;;;;;;;;;3.30;99.90;;;;;;5115975;28;19966;-71
2020/12/14 00:10:11;;;;;;;;;;;3.30;99.90;;;;;;5105374;28;19978;-71
2020/12/14 00:12:38;;;;;;;;;;;3.20;99.90;;;;;;5110575;28;20266;-71
2020/12/14 00:15:05;;;;;;;;;;;3.00;99.90;;;;;;5104740;28;19924;-72
2020/12/14 00:17:33;;;;;;;;;;;3.00;99.90;;;;;;5109935;28;20005;-72
2020/12/14 00:19:59;;;;;;;;;;;2.90;99.90;;;;;;5099236;28;19963;-72
2020/12/14 00:22:28;;;;;;;;;;;2.90;99.90;;;;;;5100192;28;19937;-72
2020/12/14 00:24:55;;;;;;;;;;;2.80;99.90;;;;;;5097066;28;20304;-77
2020/12/14 00:27:21;;;;;;;;;;;2.90;99.90;;;;;;5115280;28;19954;-71
2020/12/14 00:29:48;;;;;;;;;;;2.90;99.90;;;;;;5100220;28;19928;-72
2020/12/14 00:32:15;;;;;;;;;;;2.80;99.90;;;;;;5114411;28;20275;-72
2020/12/14 00:34:41;;;;;;;;;;;2.80;99.90;;;;;;5115368;28;19973;-71
2020/12/14 00:37:07;;;;;;;;;;;2.70;99.90;;;;;;5110987;28;19934;-71
2020/12/14 00:39:34;;;;;;;;;;;2.80;99.90;;;;;;5115390;28;20022;-71
2020/12/14 00:42:00;;;;;;;;;;;2.80;99.90;;;;;;5112292;28;19924;-72
2020/12/14 00:44:26;;;;;;;;;;;2.70;99.90;;;;;;5115159;28;19946;-71
2020/12/14 00:46:54;;;;;;;;;;;2.80;99.90;;;;;;5112305;28;19923;-71
2020/12/14 00:49:20;;;;;;;;;;;2.80;99.90;;;;;;5115431;27;19935;-71
2020/12/14 00:51:47;;;;;;;;;;;2.70;99.90;;;;;;5111817;28;20395;-72
2020/12/14 00:54:14;;;;;;;;;;;2.80;99.90;;;;;;5113397;28;19924;-71
2020/12/14 00:56:41;;;;;;;;;;;2.80;99.90;;;;;;5112144;28;20351;-71
2020/12/14 00:59:08;;;;;;;;;;;2.90;99.90;;;;;;5114484;28;19928;-72
2020/12/14 01:01:34;;;;;;;;;;;3.10;99.90;;;;;;5112207;28;19924;-72
2020/12/14 01:04:01;;;;;;;;;;;3.10;99.90;;;;;;5114266;28;19923;-72
2020/12/14 01:06:28;;;;;;;;;;;3.20;99.90;;;;;;5109797;28;20399;-71
2020/12/14 01:08:55;;;;;;;;;;;3.20;99.90;;;;;;5114006;28;19931;-75
2020/12/14 01:11:24;;;;;;;;;;;3.20;99.90;;;;;;5096183;28;19950;-72
2020/12/14 01:13:50;;;;;;;;;;;3.10;99.90;;;;;;5114796;28;19924;-71
2020/12/14 01:16:16;;;;;;;;;;;3.20;99.90;;;;;;5114108;28;20093;-71
2020/12/14 01:18:43;;;;;;;;;;;3.10;99.90;;;;;;5112140;28;19963;-74
2020/12/14 01:21:10;;;;;;;;;;;3.10;99.90;;;;;;5113758;28;19947;-71
2020/12/14 01:23:37;;;;;;;;;;;3.10;99.90;;;;;;5111923;28;20035;-72
2020/12/14 01:26:03;;;;;;;;;;;3.10;99.90;;;;;;5114066;28;19924;-72
2020/12/14 01:28:30;;;;;;;;;;;3.00;99.90;;;;;;5108124;28;19969;-71
2020/12/14 01:30:56;;;;;;;;;;;3.10;99.90;;;;;;5113902;28;19923;-72
2020/12/14 01:33:22;;;;;;;;;;;3.10;99.90;;;;;;5111646;27;19923;-71
2020/12/14 01:35:49;;;;;;;;;;;3.20;99.90;;;;;;5113893;28;19928;-71
2020/12/14 01:38:16;;;;;;;;;;;3.30;99.90;;;;;;5110632;28;20267;-71
2020/12/14 01:40:42;;;;;;;;;;;3.20;99.90;;;;;;5114014;28;19927;-71
2020/12/14 01:43:08;;;;;;;;;;;3.20;99.90;;;;;;5110047;28;19923;-72
2020/12/14 01:45:35;;;;;;;;;;;3.30;99.90;;;;;;5114118;28;19928;-71
2020/12/14 01:48:03;;;;;;;;;;;3.30;99.90;;;;;;5110285;28;19924;-71
2020/12/14 01:50:30;;;;;;;;;;;3.40;99.90;;;;;;5113930;28;19949;-71
2020/12/14 01:52:57;;;;;;;;;;;3.50;99.90;;;;;;5110891;28;19931;-78
2020/12/14 01:55:27;;;;;;;;;;;3.50;99.90;;;;;;5113941;28;19969;-71
2020/12/14 01:57:53;;;;;;;;;;;3.50;99.90;;;;;;5113574;28;20320;-72
2020/12/14 02:00:19;;;;;;;;;;;3.40;99.90;;;;;;5109755;28;19924;-71
2020/12/14 02:02:46;;;;;;;;;;;3.40;99.90;;;;;;5113816;28;19963;-71
2020/12/14 02:05:12;;;;;;;;;;;3.50;99.90;;;;;;5110646;28;19973;-72
2020/12/14 02:07:39;;;;;;;;;;;3.50;99.90;;;;;;5113421;28;20273;-71
2020/12/14 02:10:05;;;;;;;;;;;3.50;99.90;;;;;;5103955;28;20377;-71
2020/12/14 02:12:32;;;;;;;;;;;3.60;99.90;;;;;;5093414;28;20010;-71
2020/12/14 02:14:59;;;;;;;;;;;3.60;99.90;;;;;;5101781;28;19923;-73
2020/12/14 02:17:26;;;;;;;;;;;3.70;99.90;;;;;;5113432;28;20014;-71
2020/12/14 02:19:53;;;;;;;;;;;3.60;99.90;;;;;;5110367;28;19924;-71
2020/12/14 02:22:19;;;;;;;;;;;3.70;99.90;;;;;;5112246;28;19924;-71
2020/12/14 02:24:53;;;;;;;;;;;3.70;99.90;;;;;;5110246;28;19927;-72
2020/12/14 02:27:19;;;;;;;;;;;3.80;99.90;;;;;;5112534;28;19926;-72
2020/12/14 02:29:47;;;;;;;;;;;3.70;99.90;;;;;;5101880;28;19936;-72
2020/12/14 02:32:15;;;;;;;;;;;3.90;99.90;;;;;;5112453;28;19924;-72
2020/12/14 02:34:41;;;;;;;;;;;3.90;99.90;;;;;;5110088;28;21799;-72
2020/12/14 02:37:08;;;;;;;;;;;3.90;99.90;;;;;;5111922;28;19928;-72
2020/12/14 02:39:37;;;;;;;;;;;3.90;99.90;;;;;;5110369;28;19931;-71
2020/12/14 02:42:13;;;;;;;;;;;4.00;99.90;;;;;;5111326;28;20014;-72
2020/12/14 02:44:40;;;;;;;;;;;4.00;99.90;;;;;;5113061;28;19952;-71
2020/12/14 02:47:07;;;;;;;;;;;4.10;99.90;;;;;;5109946;28;19930;-72
2020/12/14 02:49:33;;;;;;;;;;;4.20;99.90;;;;;;5112516;28;19969;-72
2020/12/14 02:52:00;;;;;;;;;;;4.20;99.90;;;;;;5109812;28;19924;-72
2020/12/14 02:54:26;;;;;;;;;;;4.20;99.90;;;;;;5113274;28;19927;-72
2020/12/14 02:56:52;;;;;;;;;;;4.30;99.90;;;;;;5108435;28;19924;-71
2020/12/14 02:59:20;;;;;;;;;;;4.30;99.90;;;;;;5112034;28;19950;-72
2020/12/14 03:01:47;;;;;;;;;;;4.30;99.90;;;;;;5110114;28;20018;-72
2020/12/14 03:04:13;;;;;;;;;;;4.30;99.90;;;;;;5111795;28;19924;-71
2020/12/14 03:06:40;;;;;;;;;;;4.30;99.90;;;;;;5109930;28;19924;-71
2020/12/14 03:09:06;;;;;;;;;;;4.40;99.90;;;;;;5111457;28;19923;-72
2020/12/14 03:11:32;;;;;;;;;;;4.50;99.90;;;;;;5098720;28;19931;-72
2020/12/14 03:13:59;;;;;;;;;;;4.40;99.90;;;;;;5111579;28;19930;-74
2020/12/14 03:16:26;;;;;;;;;;;4.40;99.90;;;;;;5109889;28;19935;-71
2020/12/14 03:18:52;;;;;;;;;;;4.40;99.90;;;;;;5112686;28;19927;-71
2020/12/14 03:21:18;;;;;;;;;;;4.50;99.90;;;;;;5108618;28;20432;-72
2020/12/14 03:23:45;;;;;;;;;;;4.40;99.90;;;;;;5111304;28;19924;-72
2020/12/14 03:26:13;;;;;;;;;;;4.50;99.90;;;;;;5111988;28;19928;-72
2020/12/14 03:28:40;;;;;;;;;;;4.50;99.90;;;;;;5109307;28;20364;-72
2020/12/14 03:31:06;;;;;;;;;;;4.50;99.90;;;;;;5110624;28;20018;-71
2020/12/14 03:33:33;;;;;;;;;;;4.40;99.90;;;;;;5109808;28;20361;-72
2020/12/14 03:36:00;;;;;;;;;;;4.40;99.90;;;;;;5113433;28;19930;-72
2020/12/14 03:38:26;;;;;;;;;;;4.40;99.90;;;;;;5107914;28;19954;-72
2020/12/14 03:40:53;;;;;;;;;;;4.40;99.90;;;;;;5104987;28;19977;-71
2020/12/14 03:43:19;;;;;;;;;;;4.40;99.90;;;;;;5108017;28;19923;-72
2020/12/14 03:45:48;;;;;;;;;;;4.40;99.90;;;;;;5095857;28;20054;-71
2020/12/14 03:48:15;;;;;;;;;;;4.40;99.90;;;;;;5084494;28;20718;-72
2020/12/14 03:50:43;;;;;;;;;;;4.40;99.90;;;;;;5116311;28;19924;-72
2020/12/14 03:53:09;;;;;;;;;;;4.40;99.90;;;;;;5112692;28;19924;-72
2020/12/14 03:55:35;;;;;;;;;;;4.40;99.90;;;;;;5107057;28;20016;-72
2020/12/14 03:58:02;;;;;;;;;;;4.40;99.90;;;;;;5096430;28;19930;-72
2020/12/14 04:00:28;;;;;;;;;;;4.30;99.90;;;;;;5097377;28;20266;-72
2020/12/14 04:02:55;;;;;;;;;;;4.30;99.90;;;;;;5094053;27;19925;-72
2020/12/14 04:05:21;;;;;;;;;;;4.30;99.90;;;;;;5115861;28;20026;-72
2020/12/14 04:07:48;;;;;;;;;;;4.30;99.90;;;;;;5087066;28;20014;-72
2020/12/14 04:10:14;;;;;;;;;;;4.30;99.90;;;;;;5112151;28;20015;-72
2020/12/14 04:12:41;;;;;;;;;;;4.30;99.90;;;;;;5115999;28;19924;-72
2020/12/14 04:15:07;;;;;;;;;;;4.30;99.90;;;;;;5112218;28;19928;-72
2020/12/14 04:17:34;;;;;;;;;;;4.30;99.90;;;;;;5115516;28;19924;-72
2020/12/14 04:20:00;;;;;;;;;;;4.30;99.90;;;;;;5111795;28;19938;-72
2020/12/14 04:22:26;;;;;;;;;;;4.30;99.90;;;;;;5101600;28;19930;-72
2020/12/14 04:24:54;;;;;;;;;;;4.30;99.90;;;;;;5103626;28;19923;-71
2020/12/14 04:27:20;;;;;;;;;;;4.30;99.90;;;;;;5115685;28;20018;-72
2020/12/14 04:29:47;;;;;;;;;;;4.30;99.90;;;;;;5108803;28;19931;-72
2020/12/14 04:32:13;;;;;;;;;;;4.40;99.90;;;;;;5113705;28;19924;-72
2020/12/14 04:34:39;;;;;;;;;;;4.40;99.90;;;;;;5110657;28;19924;-72
2020/12/14 04:37:06;;;;;;;;;;;4.40;99.90;;;;;;5114577;28;19959;-72
2020/12/14 04:39:32;;;;;;;;;;;4.40;99.90;;;;;;5112808;28;19932;-72
2020/12/14 04:41:59;;;;;;;;;;;4.40;99.90;;;;;;5098936;28;20019;-72
2020/12/14 04:44:26;;;;;;;;;;;4.40;99.90;;;;;;5111578;28;20257;-71
2020/12/14 04:46:52;;;;;;;;;;;4.30;99.90;;;;;;5113388;28;19924;-71
2020/12/14 04:49:18;;;;;;;;;;;4.30;99.90;;;;;;5114508;28;19955;-71
2020/12/14 04:51:45;;;;;;;;;;;4.30;99.90;;;;;;5112555;28;19930;-72
2020/12/14 04:54:11;;;;;;;;;;;4.40;99.90;;;;;;5114439;28;19924;-72
2020/12/14 04:56:39;;;;;;;;;;;4.30;99.90;;;;;;5112187;28;19930;-71
2020/12/14 04:59:06;;;;;;;;;;;4.30;99.90;;;;;;5114419;28;19924;-72
2020/12/14 05:01:33;;;;;;;;;;;4.30;99.90;;;;;;5111588;28;20459;-72
2020/12/14 05:03:59;;;;;;;;;;;4.30;99.90;;;;;;5096646;28;20015;-74
2020/12/14 05:06:25;;;;;;;;;;;4.40;99.90;;;;;;5101883;28;20432;-72
2020/12/14 05:08:51;;;;;;;;;;;4.30;99.90;;;;;;5114178;28;19924;-72
2020/12/14 05:11:32;;;;;;;;;;;4.30;99.90;;;;;;5102698;28;19924;-72
2020/12/14 05:14:11;;;;;;;;;;;4.40;99.90;;;;;;5113934;28;20390;-72
2020/12/14 05:16:37;;;;;;;;;;;4.50;99.90;;;;;;5111940;28;19973;-71
2020/12/14 05:19:16;;;;;;;;;;;4.50;99.90;;;;;;5113912;28;19947;-72
2020/12/14 05:21:45;;;;;;;;;;;4.40;99.90;;;;;;5111520;28;19984;-72
2020/12/14 05:24:17;;;;;;;;;;;4.40;99.90;;;;;;5112909;28;20380;-72
2020/12/14 05:26:44;;;;;;;;;;;4.40;99.90;;;;;;5111228;28;20038;-72
2020/12/14 05:29:15;;;;;;;;;;;4.30;99.90;;;;;;5110682;28;19924;-73
2020/12/14 05:31:41;;;;;;;;;;;4.30;99.90;;;;;;5111447;28;19931;-73
2020/12/14 05:34:12;;;;;;;;;;;4.30;99.90;;;;;;5113462;28;19934;-75
2020/12/14 05:36:38;;;;;;;;;;;4.30;99.90;;;;;;5110802;28;19924;-73
2020/12/14 05:39:24;;;;;;;;;;;4.30;99.90;;;;;;5113439;28;19923;-74
2020/12/14 05:41:50;;;;;;;;;;;4.40;99.90;;;;;;5108736;28;20029;-73
2020/12/14 05:44:26;;;;;;;;;;;4.30;99.90;;;;;;5113368;28;19924;-72
2020/12/14 05:46:52;;;;;;;;;;;4.30;99.90;;;;;;5111169;28;20323;-75
2020/12/14 05:49:19;;;;;;;;;;;4.20;99.90;;;;;;5112956;28;19927;-73
2020/12/14 05:51:45;;;;;;;;;;;4.20;99.90;;;;;;5107076;28;20397;-73
2020/12/14 05:54:12;;;;;;;;;;;4.10;99.90;;;;;;5109133;28;19923;-72
2020/12/14 05:56:39;;;;;;;;;;;4.10;99.90;;;;;;5113698;28;19985;-72
2020/12/14 05:59:05;;;;;;;;;;;4.00;99.90;;;;;;5108589;28;19924;-73
2020/12/14 06:01:32;;;;;;;;;;;4.00;99.90;;;;;;5109136;28;19975;-73
2020/12/14 06:03:59;;;;;;;;;;;4.00;99.90;;;;;;5100436;28;20388;-73
2020/12/14 06:06:29;;;;;;;;;;;3.90;99.90;;;;;;5110222;28;20392;-72
2020/12/14 06:09:03;;;;;;;;;;;4.00;99.90;;;;;;5109073;28;19989;-72
2020/12/14 06:11:34;;;;;;;;;;;4.00;99.90;;;;;;5097248;28;19931;-73
2020/12/14 06:14:02;;;;;;;;;;;4.00;99.90;;;;;;5098876;28;19946;-73
2020/12/14 06:16:29;;;;;;;;;;;4.10;99.90;;;;;;5108540;28;19947;-74
2020/12/14 06:18:57;;;;;;;;;;;4.10;99.90;;;;;;5109498;28;19924;-79
2020/12/14 06:21:25;;;;;;;;;;;4.10;99.90;;;;;;5107826;28;19959;-72
2020/12/14 06:23:51;;;;;;;;;;;4.20;99.90;;;;;;5109791;28;19930;-72
2020/12/14 06:26:21;;;;;;;;;;;4.20;99.90;;;;;;5109141;28;19920;-73
2020/12/14 06:28:51;;;;;;;;;;;4.30;99.90;;;;;;5097077;28;20011;-72
2020/12/14 06:31:37;;;;;;;;;;;4.30;99.90;;;;;;5112319;28;19926;-72
2020/12/14 06:34:05;;;;;;;;;;;4.40;99.90;;;;;;5109441;28;19924;-72
2020/12/14 06:36:38;;;;;;;;;;;4.50;99.90;;;;;;5112149;28;19923;-73
2020/12/14 06:39:24;;;;;;;;;;;4.50;99.90;;;;;;5108528;28;21521;-72
2020/12/14 06:41:51;;;;;;;;;;;4.60;99.90;;;;;;5111412;28;19972;-73
2020/12/14 06:44:17;;;;;;;;;;;4.60;99.90;;;;;;5104221;28;19930;-73
2020/12/14 06:46:44;;;;;;;;;;;4.60;99.90;;;;;;5092562;28;20345;-73
2020/12/14 06:49:11;;;;;;;;;;;4.60;99.90;;;;;;5097052;28;19924;-78
2020/12/14 06:51:50;;;;;;;;;;;4.60;99.90;;;;;;5110857;28;19932;-72
2020/12/14 06:54:31;;;;;;;;;;;4.60;99.90;;;;;;5110913;28;19959;-73
2020/12/14 06:57:01;;;;;;;;;;;4.60;99.90;;;;;;5090880;28;19970;-73
2020/12/14 06:59:30;;;;;;;;;;;4.60;99.90;;;;;;5091847;28;20019;-73
2020/12/14 07:01:57;;;;;;;;;;;4.60;99.90;;;;;;5095241;28;19928;-76
2020/12/14 07:04:40;;;;;;;;;;;4.70;99.90;;;;;;5095044;28;19967;-71
2020/12/14 07:07:25;;;;;;;;;;;4.70;99.90;;;;;;5107634;28;19973;-72
2020/12/14 07:09:51;;;;;;;;;;;4.70;99.90;;;;;;5110635;28;19970;-72
2020/12/14 07:12:24;;;;;;;;;;;4.70;99.90;;;;;;5108186;28;20272;-72
2020/12/14 07:14:51;;;;;;;;;;;4.70;99.90;;;;;;5112398;28;19962;-72
2020/12/14 07:17:18;;;;;;;;;;;4.60;99.90;;;;;;5093356;28;19955;-72
2020/12/14 07:19:46;;;;;;;;;;;4.60;99.90;;;;;;5091997;28;20011;-72
2020/12/14 07:22:13;;;;;;;;;;;4.60;99.90;;;;;;5103414;28;19984;-71
2020/12/14 07:24:40;;;;;;;;;;;4.60;99.90;;;;;;5102970;28;19931;-71
2020/12/14 07:27:08;;;;;;;;;;;4.60;99.90;;;;;;5103262;28;19928;-71
2020/12/14 07:29:35;;;;;;;;;;;4.60;99.90;;;;;;5102076;28;19977;-71
2020/12/14 07:32:03;;;;;;;;;;;4.50;99.90;;;;;;5088065;28;20009;-72
2020/12/14 07:34:29;;;;;;;;;;;4.60;99.90;;;;;;5112302;28;19938;-71
2020/12/14 07:36:56;;;;;;;;;;;4.60;99.90;;;;;;5097374;28;19924;-78
2020/12/14 07:39:23;;;;;;;;;;;4.60;99.90;;;;;;5110294;28;19919;-72
2020/12/14 07:41:49;;;;;;;;;;;4.70;99.90;;;;;;5105476;28;19974;-71
2020/12/14 07:44:16;;;;;;;;;;;4.70;99.90;;;;;;5111705;28;19928;-71
2020/12/14 07:46:44;;;;;;;;;;;4.80;99.90;;;;;;5109358;28;20078;-70
2020/12/14 07:49:11;;;;;;;;;;;4.70;99.90;;;;;;5110704;28;20010;-71
2020/12/14 07:51:39;;;;;;;;;;;4.70;99.90;;;;;;5109418;28;20437;-77
2020/12/14 07:54:08;;;;;;;;;;;4.70;99.90;;;;;;5108729;28;20011;-72
2020/12/14 07:56:41;;;;;;;;;;;4.70;99.90;;;;;;5111361;28;19923;-71
2020/12/14 07:59:16;;;;;;;;;;;4.80;99.90;;;;;;5088571;28;19928;-72
2020/12/14 08:01:42;;;;;;;;;;;4.80;99.90;;;;;;5091663;28;19974;-72
2020/12/14 08:04:09;;;;;;;;;;;4.80;99.90;;;;;;5106223;28;20322;-71
2020/12/14 08:06:37;;;;;;;;;;;4.70;99.90;;;;;;5112081;28;19959;-71
2020/12/14 08:09:05;;;;;;;;;;;4.70;99.90;;;;;;5106074;28;19930;-72
2020/12/14 08:11:33;;;;;;;;;;;4.70;99.90;;;;;;5109400;28;20389;-72
2020/12/14 08:13:59;;;;;;;;;;;4.80;99.90;;;;;;5100329;28;19924;-74
2020/12/14 08:16:26;;;;;;;;;;;4.80;99.90;;;;;;5112328;28;20332;-71
2020/12/14 08:18:55;;;;;;;;;;;4.90;99.90;;;;;;5108901;28;19924;-71
2020/12/14 08:21:22;;;;;;;;;;;5.00;99.90;;;;;;5113977;28;20321;-71
2020/12/14 08:23:49;;;;;;;;;;;4.90;99.90;;;;;;5112422;28;20026;-71
2020/12/14 08:26:19;;;;;;;;;;;4.90;99.90;;;;;;5110808;28;20659;-71
2020/12/14 08:28:47;;;;;;;;;;;4.90;99.90;;;;;;5105728;28;19959;-71
2020/12/14 08:31:13;;;;;;;;;;;4.90;99.90;;;;;;5114219;28;20356;-71
2020/12/14 08:33:49;;;;;;;;;;;4.90;99.90;;;;;;5105154;28;19923;-71
2020/12/14 08:36:17;;;;;;;;;;;4.90;99.90;;;;;;5100332;28;20505;-71
2020/12/14 08:38:44;;;;;;;;;;;5.00;99.90;;;;;;5112593;28;19938;-71
2020/12/14 08:41:11;;;;;;;;;;;5.00;99.90;;;;;;5114165;28;19928;-71
2020/12/14 08:43:38;;;;;;;;;;;5.10;99.90;;;;;;5104650;28;19924;-77
2020/12/14 08:46:07;;;;;;;;;;;5.10;99.90;;;;;;5113454;28;20288;-71
2020/12/14 08:48:40;;;;;;;;;;;5.30;99.90;;;;;;5102760;28;19924;-71
2020/12/14 08:51:07;;;;;;;;;;;5.30;99.90;;;;;;5110312;28;19977;-72
2020/12/14 08:53:34;;;;;;;;;;;5.30;99.90;;;;;;5115209;28;19927;-71
2020/12/14 08:56:01;;;;;;;;;;;5.20;99.90;;;;;;5106662;28;19930;-77
2020/12/14 08:58:28;;;;;;;;;;;5.20;99.90;;;;;;5094827;28;19966;-71
2020/12/14 09:00:54;;;;;;;;;;;5.10;99.90;;;;;;5097049;28;20015;-76
2020/12/14 09:03:21;;;;;;;;;;;5.20;99.90;;;;;;5099043;28;19978;-72
2020/12/14 09:05:48;;;;;;;;;;;5.20;99.90;;;;;;5109279;28;19928;-71
2020/12/14 09:08:15;;;;;;;;;;;5.30;99.90;;;;;;5114294;28;19930;-71
2020/12/14 09:10:42;;;;;;;;;;;5.30;99.90;;;;;;5108974;27;20324;-71
2020/12/14 09:13:08;;;;;;;;;;;5.40;99.90;;;;;;5093523;28;20014;-71
2020/12/14 09:15:35;;;;;;;;;;;5.60;99.90;;;;;;5098145;28;20414;-71
2020/12/14 09:18:02;;;;;;;;;;;5.90;99.90;;;;;;5114443;28;19924;-71
2020/12/14 09:20:29;;;;;;;;;;;6.30;99.90;;;;;;5109624;28;20006;-72
2020/12/14 09:22:56;;;;;;;;;;;6.50;99.90;;;;;;5099416;28;19924;-78
2020/12/14 09:25:22;;;;;;;;;;;6.80;99.90;;;;;;5099875;28;20288;-71
2020/12/14 09:27:49;;;;;;;;;;;7.00;99.90;;;;;;5113262;28;20368;-72
2020/12/14 09:30:15;;;;;;;;;;;6.90;99.90;;;;;;5098106;28;19931;-71
2020/12/14 09:32:41;;;;;;;;;;;6.60;99.90;;;;;;5109785;28;19923;-72
2020/12/14 09:35:08;;;;;;;;;;;6.30;99.90;;;;;;5114019;28;19983;-70
2020/12/14 09:37:35;;;;;;;;;;;6.30;99.90;;;;;;5108228;28;20021;-70
2020/12/14 09:40:02;;;;;;;;;;;6.50;99.90;;;;;;5109125;28;19930;-70
2020/12/14 09:42:28;;;;;;;;;;;6.60;99.90;;;;;;5111576;28;20019;-69
2020/12/14 09:44:56;;;;;;;;;;;6.50;99.90;;;;;;5112477;28;19930;-71
2020/12/14 09:47:23;;;;;;;;;;;6.50;99.90;;;;;;5105012;28;19927;-70
2020/12/14 09:49:49;;;;;;;;;;;6.40;99.90;;;;;;5093565;28;19928;-70
2020/12/14 09:52:15;;;;;;;;;;;6.50;99.90;;;;;;5109283;28;19967;-70
2020/12/14 09:54:42;;;;;;;;;;;6.40;99.90;;;;;;5096718;28;19924;-70
2020/12/14 09:57:09;;;;;;;;;;;6.40;99.90;;;;;;5106973;28;19932;-71
2020/12/14 09:59:35;;;;;;;;;;;6.70;99.90;;;;;;5109229;28;19924;-70
2020/12/14 10:02:01;;;;;;;;;;;7.10;99.90;;;;;;5110215;28;19977;-70
2020/12/14 10:04:30;;;;;;;;;;;7.50;99.90;;;;;;5113415;28;19924;-70
2020/12/14 10:06:56;;;;;;;;;;;7.90;99.90;;;;;;5102281;28;19932;-73
2020/12/14 10:09:22;;;;;;;;;;;8.10;99.90;;;;;;5112861;28;20291;-70
2020/12/14 10:11:50;;;;;;;;;;;8.60;99.90;;;;;;5113285;28;19935;-70
2020/12/14 10:14:16;;;;;;;;;;;8.50;99.90;;;;;;5108733;28;20112;-70
2020/12/14 10:16:42;;;;;;;;;;;7.60;99.90;;;;;;5110982;28;20027;-71
2020/12/14 10:19:09;;;;;;;;;;;8.00;99.90;;;;;;5106503;28;20383;-69
2020/12/14 10:21:35;;;;;;;;;;;8.20;99.90;;;;;;5113217;28;20014;-70
2020/12/14 10:24:02;;;;;;;;;;;8.10;99.90;;;;;;5107854;28;19982;-70
2020/12/14 10:26:28;;;;;;;;;;;8.40;99.90;;;;;;5100902;28;19924;-70
2020/12/14 10:28:55;;;;;;;;;;;8.50;99.90;;;;;;5101268;28;20014;-69
2020/12/14 10:31:22;;;;;;;;;;;8.70;99.90;;;;;;5111346;28;19920;-70
2020/12/14 10:33:48;;;;;;;;;;;8.60;99.90;;;;;;5106673;28;19928;-69
2020/12/14 10:36:18;;;;;;;;;;;7.90;99.90;;;;;;5111888;28;20372;-71
2020/12/14 10:38:45;;;;;;;;;;;7.80;99.90;;;;;;5106962;28;19946;-71
2020/12/14 10:41:12;;;;;;;;;;;7.80;99.90;;;;;;5104217;28;19923;-72
2020/12/14 10:43:38;;;;;;;;;;;7.60;99.90;;;;;;5109815;28;21510;-72
2020/12/14 10:46:05;;;;;;;;;;;7.60;99.90;;;;;;5111995;28;19924;-71
2020/12/14 10:48:32;;;;;;;;;;;7.50;99.90;;;;;;5101736;28;19966;-71
2020/12/14 10:50:59;;;;;;;;;;;7.60;99.90;;;;;;5112019;28;19959;-71
2020/12/14 10:53:25;;;;;;;;;;;7.70;99.90;;;;;;5112068;28;19923;-71
2020/12/14 10:55:52;;;;;;;;;;;7.60;99.90;;;;;;5109567;28;19924;-70
2020/12/14 10:58:18;;;;;;;;;;;7.80;99.90;;;;;;5112141;28;19919;-70
2020/12/14 11:00:44;;;;;;;;;;;7.50;99.90;;;;;;5101863;28;19924;-72
2020/12/14 11:03:12;;;;;;;;;;;7.40;99.90;;;;;;5103337;28;19924;-71
2020/12/14 11:05:38;;;;;;;;;;;7.40;99.90;;;;;;5099844;28;19924;-73
2020/12/14 11:08:04;;;;;;;;;;;7.60;99.90;;;;;;5108234;28;20340;-72
2020/12/14 11:10:31;;;;;;;;;;;7.80;99.90;;;;;;5099413;28;19924;-72
2020/12/14 11:12:57;;;;;;;;;;;7.90;99.90;;;;;;5112293;28;19936;-74
2020/12/14 11:15:23;;;;;;;;;;;7.80;99.90;;;;;;5109331;28;19923;-73
2020/12/14 11:17:50;;;;;;;;;;;7.90;99.90;;;;;;5112169;28;19928;-73
2020/12/14 11:20:17;;;;;;;;;;;8.00;99.90;;;;;;5106866;28;20059;-73
2020/12/14 11:22:43;;;;;;;;;;;8.00;99.90;;;;;;5105359;28;20018;-73
2020/12/14 11:25:10;;;;;;;;;;;8.20;99.90;;;;;;5107514;28;19927;-75
2020/12/14 11:27:37;;;;;;;;;;;8.20;99.90;;;;;;5107553;28;19932;-73
2020/12/14 11:30:03;;;;;;;;;;;8.50;99.90;;;;;;5102788;28;19951;-76
2020/12/14 11:32:30;;;;;;;;;;;8.30;99.90;;;;;;5111723;28;20011;-71
2020/12/14 11:34:56;;;;;;;;;;;8.50;99.90;;;;;;5111984;28;19931;-77
2020/12/14 11:37:23;;;;;;;;;;;8.30;99.90;;;;;;5105829;28;20357;-71
2020/12/14 11:39:50;;;;;;;;;;;8.10;99.90;;;;;;5092386;28;20280;-72
2020/12/14 11:42:16;;;;;;;;;;;8.20;99.90;;;;;;5106094;28;20314;-70
2020/12/14 11:44:42;;;;;;;;;;;8.10;99.90;;;;;;5103706;28;19924;-70
2020/12/14 11:47:09;;;;;;;;;;;8.30;99.90;;;;;;5102027;28;19924;-70
2020/12/14 11:49:35;;;;;;;;;;;8.30;99.90;;;;;;5111615;28;19924;-71
2020/12/14 11:52:02;;;;;;;;;;;8.30;99.90;;;;;;5108412;28;19928;-71
2020/12/14 11:54:29;;;;;;;;;;;8.40;99.90;;;;;;5111076;28;20034;-70
2020/12/14 11:56:56;;;;;;;;;;;8.30;99.90;;;;;;5112830;28;19923;-71
2020/12/14 11:59:23;;;;;;;;;;;8.40;99.90;;;;;;5116099;27;19920;-72
2020/12/14 12:01:50;;;;;;;;;;;8.40;99.90;;;;;;5108338;28;19935;-71
2020/12/14 12:04:16;;;;;;;;;;;8.30;99.90;;;;;;5101007;28;19927;-72
2020/12/14 12:06:43;;;;;;;;;;;8.20;99.90;;;;;;5112956;28;19930;-72
2020/12/14 12:09:09;;;;;;;;;;;8.10;99.90;;;;;;5114671;28;19924;-70
2020/12/14 12:11:36;;;;;;;;;;;8.00;99.90;;;;;;5115107;28;20303;-78
2020/12/14 12:14:03;;;;;;;;;;;8.20;99.90;;;;;;5114012;28;20006;-72
2020/12/14 12:16:29;;;;;;;;;;;8.20;99.90;;;;;;5115551;28;19935;-72
2020/12/14 12:18:56;;;;;;;;;;;8.20;99.90;;;;;;5101513;28;19924;-75
2020/12/14 12:21:22;;;;;;;;;;;8.30;99.90;;;;;;5095169;28;19931;-71
2020/12/14 12:23:49;;;;;;;;;;;8.60;99.90;;;;;;5099381;28;19935;-72
2020/12/14 12:26:15;;;;;;;;;;;8.60;99.90;;;;;;5094378;28;19924;-71
2020/12/14 12:28:43;;;;;;;;;;;8.60;99.90;;;;;;5092485;28;19931;-72
2020/12/14 12:31:09;;;;;;;;;;;8.70;99.90;;;;;;5094408;28;20314;-71
2020/12/14 12:33:35;;;;;;;;;;;8.70;99.90;;;;;;5102141;28;19924;-71
2020/12/14 12:36:02;;;;;;;;;;;8.70;99.90;;;;;;5111236;28;19981;-75
2020/12/14 12:38:28;;;;;;;;;;;8.50;99.90;;;;;;5112811;28;19931;-72
2020/12/14 12:40:54;;;;;;;;;;;8.30;99.90;;;;;;5111336;27;19925;-70
2020/12/14 12:43:21;;;;;;;;;;;8.40;99.90;;;;;;5094592;28;19926;-71
2020/12/14 12:45:49;;;;;;;;;;;8.30;99.90;;;;;;5114376;28;20399;-71
2020/12/14 12:48:15;;;;;;;;;;;8.40;99.90;;;;;;5104383;27;19959;-71
2020/12/14 12:50:53;;;;;;;;;;;8.30;99.90;;;;;;5103602;28;19949;-71
2020/12/14 12:53:23;;;;;;;;;;;8.30;99.90;;;;;;5111237;28;19942;-72
2020/12/14 12:55:49;;;;;;;;;;;8.10;99.90;;;;;;5114837;28;20375;-70
2020/12/14 12:58:15;;;;;;;;;;;8.10;99.90;;;;;;5114392;28;19923;-70
2020/12/14 13:00:42;;;;;;;;;;;8.00;99.90;;;;;;5108234;28;20376;-70
2020/12/14 13:03:10;;;;;;;;;;;7.90;99.90;;;;;;5102151;28;19930;-70
2020/12/14 13:05:38;;;;;;;;;;;7.90;99.90;;;;;;5100762;28;19928;-70
2020/12/14 13:08:05;;;;;;;;;;;8.00;99.90;;;;;;5109561;28;19923;-74
2020/12/14 13:10:31;;;;;;;;;;;8.10;99.90;;;;;;5110740;28;19924;-71
2020/12/14 13:12:58;;;;;;;;;;;8.10;99.90;;;;;;5114485;28;19928;-72
2020/12/14 13:15:24;;;;;;;;;;;8.10;99.90;;;;;;5110498;28;19959;-72
2020/12/14 13:17:50;;;;;;;;;;;8.00;99.90;;;;;;5114584;28;20381;-72
2020/12/14 13:20:18;;;;;;;;;;;8.00;99.90;;;;;;5108147;28;19928;-70
2020/12/14 13:22:44;;;;;;;;;;;7.90;99.90;;;;;;5109206;28;19924;-70
2020/12/14 13:25:10;;;;;;;;;;;7.90;99.90;;;;;;5110970;28;19930;-71
2020/12/14 13:27:37;;;;;;;;;;;7.90;99.90;;;;;;5111013;28;19932;-71
2020/12/14 13:30:04;;;;;;;;;;;8.00;99.90;;;;;;5104187;28;19989;-72
2020/12/14 13:32:30;;;;;;;;;;;8.20;99.90;;;;;;5114031;28;20019;-72
2020/12/14 13:34:57;;;;;;;;;;;8.10;99.90;;;;;;5102876;28;19928;-74
2020/12/14 13:37:24;;;;;;;;;;;8.10;99.90;;;;;;5110928;28;19924;-72
2020/12/14 13:39:50;;;;;;;;;;;8.30;99.90;;;;;;5113729;28;19924;-74
2020/12/14 13:42:16;;;;;;;;;;;8.30;99.90;;;;;;5108155;28;20702;-72
2020/12/14 13:44:43;;;;;;;;;;;8.30;99.90;;;;;;5107941;28;19993;-70
2020/12/14 13:47:09;;;;;;;;;;;8.30;99.90;;;;;;5106848;28;20314;-73
2020/12/14 13:49:35;;;;;;;;;;;8.20;99.90;;;;;;5113388;28;20019;-73
2020/12/14 13:52:02;;;;;;;;;;;8.20;99.90;;;;;;5109404;28;20508;-73
2020/12/14 13:54:30;;;;;;;;;;;8.20;99.90;;;;;;5111173;28;20380;-73
2020/12/14 13:56:57;;;;;;;;;;;8.20;99.90;;;;;;5109330;28;19927;-73
2020/12/14 13:59:23;;;;;;;;;;;8.00;99.90;;;;;;5112931;28;19924;-74
2020/12/14 14:01:50;;;;;;;;;;;7.90;99.90;;;;;;5106852;28;19924;-71
2020/12/14 14:04:16;;;;;;;;;;;7.80;99.90;;;;;;5109230;28;20762;-75
2020/12/14 14:06:46;;;;;;;;;;;7.80;99.90;;;;;;5098730;28;19932;-71
2020/12/14 14:09:13;;;;;;;;;;;7.70;99.90;;;;;;5111382;28;20345;-72
2020/12/14 14:11:40;;;;;;;;;;;7.70;99.90;;;;;;5107011;28;19938;-72
2020/12/14 14:14:06;;;;;;;;;;;7.60;99.90;;;;;;5109750;28;19924;-72
2020/12/14 14:16:33;;;;;;;;;;;7.60;99.90;;;;;;5109356;28;19955;-74
2020/12/14 14:18:59;;;;;;;;;;;7.60;99.90;;;;;;5112601;28;19930;-74
2020/12/14 14:21:26;;;;;;;;;;;7.60;99.90;;;;;;5105902;28;19928;-72
2020/12/14 14:23:52;;;;;;;;;;;7.60;99.90;;;;;;5092234;28;19924;-73
2020/12/14 14:26:18;;;;;;;;;;;7.60;99.90;;;;;;5091116;28;19981;-73
2020/12/14 14:28:46;;;;;;;;;;;7.60;99.90;;;;;;5092638;28;19989;-72
2020/12/14 14:31:15;;;;;;;;;;;7.60;99.90;;;;;;5090805;28;19964;-73